Main page
METAR-TAF:

METAR-TAF

Airports :

Gaya Airport

Gaya, India

latitude: 24-44-40N, longitude: 84-57-04E, elevation: 116 m

Current weather observation

The report was made 50 minutes ago, at 16:00 UTC
Wind 4 kt from the South
Temperature 24°C
Humidity 83%
Pressure 1010 hPa
Visibility: 2000 m
Scattered clouds at a height of 1800 ft
Scattered clouds at a height of 10000 ft
mist

METAR: VEGY 211600Z 18004KT 2000 BR SCT018 SCT100 24/21 Q1010

Time: 22:20 (16:50 UTC)

Forecast

The report was made 2 hours and 50 minutes ago, at 14:00 UTC
Forecast valid from 21 at 15 UTC to 21 at 24 UTC
Wind 2 kt from the West
Visibility: 2500 m
Few clouds at a height of 2000 ft
mist
Becoming
from 21 at 21 UTC to 21 at 23 UTC
Visibility: 1000 m
Shallow fog, mist

TAF: VEGY 211400Z 2115/2124 27002KT 2500 BR FEW020 BECMG 2121/2123 1000 MIFG BR

Weather observations and forecasts of more than 4000 airports (METAR and TAF reports).

The available stations are represented by yellow and red dots on the map.

Hover mouse over dot to see the name of the station.

Then click to see weather observations and forecasts.

To change the map : click on the green buttons with a black cross to zoom in, on the green button with a dash to zoom out, or on the green arrows for adjacent maps.


METAR-TAF: